Accueil
METAR-TAF:

METAR-TAF

Aéroports :

Aéroport de Nîmes–Alès–Camargue–Cévennes, Garons

Nîmes, France

latitude: 43-45N, longitude: 004-25E, altitude: 94 m

Observation

Le bulletin a été fait il y a 32 minutes, à 22:30 UTC
Vent 9 kt de nord/nord-ouest
Température 23°C
Humidité 65%
Pression 1017 hPa
Visibilité 10 km ou plus
pas de nuages en-dessous de 1500 mètres et pas de cumulonimbus.

METAR: LFTW 172230Z AUTO 33009KT CAVOK 23/16 Q1017

Heure: 01:02 (23:02 UTC)

Prévision

Le bulletin a été fait il y a 9 heures et 2 minutes, à 14:00 UTC
Prévision valable du 17 à 15 UTC au 18 à 15 UTC
Vent 12 kt de nord
Visibilité 10 km ou plus
Temporairement
du 17 à 15 UTC au 17 à 17 UTC
Vent 15 kt de nord avec des rafales jusqu'à 30 kt
Nuages fragmentés à une hauteur de 7000 ft, Cumulus congestus.
averses de pluie

TAF: LFTW 171400Z 1715/1815 35012KT 9999 NSC TEMPO 1715/1717 36015G30KT SHRA BKN070TCU

Observations et prévisions météorologiques de plus de 4000 aéroports (messages METAR et TAF).

Les stations disponibles sont représentées par des disques jaunes et rouges sur la carte.

Passer la souris dessus pour voir le nom de la station.

Cliquer dessus pour voir les observations et prévisions météorologiques.

Pour changer de carte: cliquez sur les boutons verts avec une croix noire pour zoomer, sur le bouton vert avec un tiret pour effectuer un zoom arrière, ou sur les flèches vertes pour les cartes adjacentes.


METAR-TAF: